createdAt,value
2019-05-25T00:00:12.629Z,6.58
2019-05-25T00:03:01.444Z,6.53
2019-05-25T00:05:30.936Z,6.10
2019-05-25T00:08:00.413Z,7.05
2019-05-25T00:10:29.900Z,5.97
2019-05-25T00:12:59.378Z,6.30
2019-05-25T00:15:28.862Z,6.15
2019-05-25T00:17:58.368Z,6.12
2019-05-25T00:20:27.896Z,5.62
2019-05-25T00:22:57.652Z,6.28
2019-05-25T00:25:27.117Z,5.67
2019-05-25T00:27:56.592Z,5.92
2019-05-25T00:30:26.092Z,6.00
2019-05-25T00:32:55.576Z,5.92
2019-05-25T00:35:25.105Z,6.17
2019-05-25T00:37:54.568Z,5.75
2019-05-25T00:40:24.094Z,5.47
2019-05-25T00:42:53.549Z,5.70
2019-05-25T00:45:23.045Z,6.62
2019-05-25T00:47:52.582Z,5.65
2019-05-25T00:50:22.158Z,5.55
2019-05-25T00:52:51.673Z,5.53
2019-05-25T00:55:21.201Z,5.55
2019-05-25T00:57:50.653Z,5.53
2019-05-25T01:00:21.382Z,5.70
2019-05-25T01:02:50.940Z,5.58
2019-05-25T01:05:39.728Z,5.87
2019-05-25T01:08:09.251Z,5.72
2019-05-25T01:10:38.808Z,5.72
2019-05-25T01:13:08.303Z,6.20
2019-05-25T01:15:37.787Z,5.80
2019-05-25T01:18:07.262Z,5.70
2019-05-25T01:20:36.807Z,5.15
2019-05-25T01:23:07.288Z,5.75
2019-05-25T01:25:36.744Z,5.50
2019-05-25T01:28:06.216Z,5.53
2019-05-25T01:30:36.112Z,5.28
2019-05-25T01:33:05.981Z,5.67
2019-05-25T01:35:35.450Z,5.90
2019-05-25T01:38:05.078Z,5.35
2019-05-25T01:40:34.558Z,5.12
2019-05-25T01:43:04.115Z,5.47
2019-05-25T01:45:33.605Z,5.17
2019-05-25T01:48:03.098Z,5.60
2019-05-25T01:50:32.554Z,5.30
2019-05-25T01:53:02.084Z,5.15
2019-05-25T01:55:31.587Z,5.22
2019-05-25T01:58:01.094Z,5.58
2019-05-25T02:00:30.945Z,5.10
2019-05-25T02:03:00.412Z,5.35
2019-05-25T02:05:29.915Z,4.87
2019-05-25T02:07:59.425Z,5.20
2019-05-25T02:10:36.306Z,4.85
2019-05-25T02:13:06.014Z,4.90
2019-05-25T02:15:35.556Z,5.12
2019-05-25T02:18:24.399Z,4.90
2019-05-25T02:20:53.881Z,5.05
2019-05-25T02:23:24.557Z,4.83
2019-05-25T02:25:54.044Z,4.55
2019-05-25T02:28:23.527Z,4.37
2019-05-25T02:30:53.089Z,4.62
2019-05-25T02:33:22.668Z,4.70
2019-05-25T02:35:52.177Z,5.10
2019-05-25T02:38:21.726Z,4.50
2019-05-25T02:40:51.306Z,4.95
2019-05-25T02:43:20.794Z,4.50
2019-05-25T02:45:50.325Z,4.65
2019-05-25T02:48:19.849Z,4.70
2019-05-25T02:50:52.954Z,4.50
2019-05-25T02:53:21.033Z,4.95
2019-05-25T02:55:50.580Z,4.45
2019-05-25T02:58:20.232Z,4.55
2019-05-25T03:00:49.794Z,4.85
2019-05-25T03:03:19.539Z,4.70
2019-05-25T03:05:51.242Z,4.75
2019-05-25T03:08:20.719Z,4.67
2019-05-25T03:10:50.864Z,4.70
2019-05-25T03:13:21.134Z,4.78
2019-05-25T03:15:50.623Z,4.53
2019-05-25T03:18:20.109Z,4.72
2019-05-25T03:20:49.783Z,5.03
2019-05-25T03:23:19.287Z,4.70
2019-05-25T03:25:50.278Z,4.42
2019-05-25T03:28:20.040Z,4.67
2019-05-25T03:30:49.530Z,4.70
2019-05-25T03:33:19.038Z,4.73
2019-05-25T03:35:48.989Z,5.03
2019-05-25T03:38:18.508Z,4.55
2019-05-25T03:40:48.006Z,4.45
2019-05-25T03:43:17.622Z,4.95
2019-05-25T03:45:47.125Z,4.70
2019-05-25T03:48:35.946Z,4.55
2019-05-25T03:51:05.452Z,4.70
2019-05-25T03:53:34.953Z,4.80
2019-05-25T03:56:06.264Z,5.22
2019-05-25T03:58:35.657Z,4.62
2019-05-25T04:01:05.153Z,4.83
2019-05-25T04:03:34.677Z,5.60
2019-05-25T04:06:04.509Z,5.00
2019-05-25T04:08:33.990Z,5.17
2019-05-25T04:11:03.585Z,4.67
2019-05-25T04:13:52.353Z,4.90
2019-05-25T04:16:22.046Z,4.78
2019-05-25T04:18:51.637Z,4.75
2019-05-25T04:21:21.119Z,5.17
2019-05-25T04:23:50.656Z,4.78
2019-05-25T04:26:22.735Z,4.65
2019-05-25T04:28:54.444Z,4.95
2019-05-25T04:31:24.306Z,4.60
2019-05-25T04:33:53.765Z,4.33
2019-05-25T04:36:23.338Z,4.72
2019-05-25T04:38:52.930Z,4.37
2019-05-25T04:41:22.462Z,4.40
2019-05-25T04:43:51.916Z,4.35
2019-05-25T04:46:21.690Z,4.37
2019-05-25T04:48:51.455Z,4.25
2019-05-25T04:51:20.895Z,4.00
2019-05-25T04:53:50.391Z,4.45
2019-05-25T04:56:19.894Z,3.90
2019-05-25T04:58:49.382Z,3.80
2019-05-25T05:01:22.312Z,3.77
2019-05-25T05:03:50.104Z,3.70
2019-05-25T05:06:19.607Z,4.03
2019-05-25T05:08:49.111Z,3.80
2019-05-25T05:11:18.616Z,3.20
2019-05-25T05:13:48.098Z,3.60
2019-05-25T05:16:17.609Z,3.77
2019-05-25T05:18:47.071Z,3.42
2019-05-25T05:21:16.567Z,3.65
2019-05-25T05:23:46.076Z,4.15
2019-05-25T05:26:15.567Z,3.85
2019-05-25T05:28:48.638Z,3.17
2019-05-25T05:31:23.619Z,3.80
2019-05-25T05:33:48.263Z,3.90
2019-05-25T05:36:19.838Z,4.00
2019-05-25T05:38:50.299Z,3.30
2019-05-25T05:41:21.908Z,3.02
2019-05-25T05:43:54.874Z,3.22
2019-05-25T05:46:27.728Z,3.00
2019-05-25T05:48:58.537Z,2.87
2019-05-25T05:51:31.867Z,3.25
2019-05-25T05:54:04.015Z,3.30
2019-05-25T05:56:33.683Z,3.20
2019-05-25T05:59:03.291Z,3.45
2019-05-25T06:01:32.823Z,3.47
2019-05-25T06:04:02.409Z,3.00
2019-05-25T06:06:32.010Z,3.20
2019-05-25T06:09:01.501Z,3.10
2019-05-25T06:11:30.970Z,2.90
2019-05-25T06:14:00.483Z,3.17
2019-05-25T06:16:29.957Z,2.92
2019-05-25T06:19:05.953Z,3.08
2019-05-25T06:21:35.425Z,3.10
2019-05-25T06:24:05.269Z,2.80
2019-05-25T06:26:34.794Z,3.08
2019-05-25T06:29:05.021Z,3.05
2019-05-25T06:31:34.496Z,2.95
2019-05-25T06:34:04.353Z,2.60
2019-05-25T06:36:33.917Z,2.62
2019-05-25T06:39:03.959Z,3.27
2019-05-25T06:41:33.443Z,3.17
2019-05-25T06:44:02.907Z,3.20
2019-05-25T06:46:32.377Z,2.90
2019-05-25T06:49:02.055Z,3.22
2019-05-25T06:51:31.517Z,3.02
2019-05-25T06:54:00.984Z,2.95
2019-05-25T06:56:31.969Z,3.10
2019-05-25T06:59:10.421Z,3.12
2019-05-25T07:01:39.943Z,3.25
2019-05-25T07:04:09.450Z,3.10
2019-05-25T07:06:38.958Z,2.77
2019-05-25T07:09:11.554Z,3.42
2019-05-25T07:12:00.502Z,3.55
2019-05-25T07:14:30.018Z,3.20
2019-05-25T07:16:59.544Z,3.40
2019-05-25T07:19:29.038Z,2.98
2019-05-25T07:21:58.580Z,3.30
2019-05-25T07:24:28.028Z,3.15
2019-05-25T07:26:57.569Z,2.98
2019-05-25T07:29:46.558Z,3.22
2019-05-25T07:32:17.542Z,2.90
2019-05-25T07:34:47.013Z,2.87
2019-05-25T07:37:35.910Z,2.70
2019-05-25T07:40:09.088Z,2.65
2019-05-25T07:42:38.764Z,3.08
2019-05-25T07:45:09.096Z,3.30
2019-05-25T07:47:38.583Z,3.37
2019-05-25T07:50:09.685Z,2.85
2019-05-25T07:52:39.196Z,3.60
2019-05-25T07:55:28.038Z,3.00
2019-05-25T07:57:57.564Z,3.35
2019-05-25T08:00:27.428Z,3.33
2019-05-25T08:02:56.895Z,3.00
2019-05-25T08:05:26.604Z,4.83
2019-05-25T08:07:56.088Z,4.60
2019-05-25T08:10:25.572Z,4.25
2019-05-25T08:12:55.083Z,3.77
2019-05-25T08:15:24.561Z,3.65
2019-05-25T08:17:54.095Z,3.77
2019-05-25T08:20:23.627Z,3.70
2019-05-25T08:22:53.116Z,3.90
2019-05-25T08:25:41.905Z,3.47
2019-05-25T08:28:11.418Z,3.90
2019-05-25T08:30:41.106Z,4.00
2019-05-25T08:33:10.597Z,3.65
2019-05-25T08:35:40.061Z,3.37
2019-05-25T08:38:09.549Z,3.55
2019-05-25T08:40:39.086Z,4.55
2019-05-25T08:43:08.594Z,3.55
2019-05-25T08:45:38.065Z,3.12
2019-05-25T08:48:07.666Z,3.12
2019-05-25T08:50:38.810Z,4.50
2019-05-25T08:53:08.730Z,3.60
2019-05-25T08:55:44.686Z,3.65
2019-05-25T08:58:14.183Z,3.67
2019-05-25T09:00:46.599Z,4.53
2019-05-25T09:03:25.173Z,4.22
2019-05-25T09:05:54.634Z,4.25
2019-05-25T09:08:24.109Z,3.77
2019-05-25T09:10:53.647Z,4.87
2019-05-25T09:13:23.150Z,3.72
2019-05-25T09:15:52.640Z,4.05
2019-05-25T09:18:22.145Z,4.62
2019-05-25T09:20:51.615Z,4.83
2019-05-25T09:23:21.084Z,6.05
2019-05-25T09:25:50.579Z,4.67
2019-05-25T09:28:20.062Z,3.58
2019-05-25T09:30:49.628Z,4.55
2019-05-25T09:33:19.185Z,5.45
2019-05-25T09:35:48.831Z,3.72
2019-05-25T09:38:18.315Z,3.92
2019-05-25T09:40:47.796Z,4.05
2019-05-25T09:43:17.302Z,4.20
2019-05-25T09:45:46.807Z,4.22
2019-05-25T09:48:16.388Z,4.33
2019-05-25T09:50:46.242Z,3.90
2019-05-25T09:53:15.709Z,3.77
2019-05-25T09:55:45.378Z,4.40
2019-05-25T09:58:27.965Z,4.90
2019-05-25T10:00:57.470Z,3.80
2019-05-25T10:03:26.961Z,4.80
2019-05-25T10:05:56.429Z,4.35
2019-05-25T10:08:27.472Z,4.33
2019-05-25T10:11:00.028Z,3.70
2019-05-25T10:13:29.511Z,3.58
2019-05-25T10:16:18.320Z,3.87
2019-05-25T10:18:47.813Z,3.80
2019-05-25T10:21:17.328Z,3.70
2019-05-25T10:23:46.858Z,3.62
2019-05-25T10:26:16.365Z,3.80
2019-05-25T10:28:45.845Z,3.70
2019-05-25T10:31:15.534Z,3.50
2019-05-25T10:33:44.988Z,3.40
2019-05-25T10:36:14.464Z,2.85
2019-05-25T10:38:43.993Z,3.50
2019-05-25T10:41:13.461Z,2.77
2019-05-25T10:43:42.930Z,3.47
2019-05-25T10:46:12.445Z,3.70
2019-05-25T10:48:41.929Z,4.17
2019-05-25T10:51:11.409Z,3.52
2019-05-25T10:54:00.370Z,4.28
2019-05-25T10:56:49.163Z,4.80
2019-05-25T10:59:18.667Z,4.33
2019-05-25T11:01:48.154Z,4.80
2019-05-25T11:04:17.647Z,3.70
2019-05-25T11:06:47.130Z,4.20
2019-05-25T11:09:16.598Z,2.50
2019-05-25T11:11:46.071Z,2.08
2019-05-25T11:14:21.606Z,2.52
2019-05-25T11:16:52.655Z,2.00
2019-05-25T11:19:31.114Z,2.40
2019-05-25T11:22:00.587Z,2.50
2019-05-25T11:24:30.055Z,1.92
2019-05-25T11:26:59.853Z,3.00
2019-05-25T11:29:48.708Z,2.90
2019-05-25T11:32:18.281Z,2.40
2019-05-25T11:34:47.780Z,2.85
2019-05-25T11:37:17.274Z,2.52
2019-05-25T11:39:46.745Z,2.40
2019-05-25T11:42:16.242Z,1.80
2019-05-25T11:45:07.175Z,1.42
2019-05-25T11:47:36.680Z,1.95
2019-05-25T11:50:08.518Z,1.80
2019-05-25T11:52:38.649Z,3.15
2019-05-25T11:55:09.858Z,3.33
2019-05-25T11:57:39.797Z,2.30
2019-05-25T12:00:24.219Z,1.75
2019-05-25T12:02:44.565Z,1.30
2019-05-25T12:05:15.860Z,1.40
2019-05-25T12:07:45.410Z,1.10
2019-05-25T12:10:17.274Z,1.10
2019-05-25T12:12:49.462Z,1.10
2019-05-25T12:15:22.079Z,1.20
2019-05-25T12:17:53.060Z,1.12
2019-05-25T12:20:22.997Z,1.00
2019-05-25T12:22:52.686Z,1.00
2019-05-25T12:25:23.692Z,1.10
2019-05-25T12:27:53.251Z,1.00
2019-05-25T12:30:23.351Z,1.12
2019-05-25T12:32:52.860Z,1.00
2019-05-25T12:35:22.586Z,1.10
2019-05-25T12:37:58.041Z,1.15
2019-05-25T12:40:28.756Z,1.00
2019-05-25T12:43:00.961Z,1.30
2019-05-25T12:45:33.425Z,1.22
2019-05-25T12:48:02.915Z,0.90
2019-05-25T12:50:51.729Z,0.90
2019-05-25T12:53:21.198Z,0.90
2019-05-25T12:55:52.277Z,0.90
2019-05-25T12:58:27.495Z,1.00
2019-05-25T13:01:16.297Z,0.70
2019-05-25T13:03:45.818Z,0.90
2019-05-25T13:06:18.200Z,0.90
2019-05-25T13:08:46.552Z,0.72
2019-05-25T13:11:16.075Z,0.90
2019-05-25T13:13:51.305Z,0.72
2019-05-25T13:16:26.891Z,0.70
2019-05-25T13:18:56.379Z,0.90
2019-05-25T13:21:25.961Z,0.90
2019-05-25T13:23:55.427Z,0.90
2019-05-25T13:26:44.220Z,0.80
2019-05-25T13:29:15.236Z,0.80
2019-05-25T13:31:44.701Z,0.88
2019-05-25T13:34:14.165Z,0.90
2019-05-25T13:36:43.688Z,0.80
2019-05-25T13:39:13.172Z,0.80
2019-05-25T13:41:42.658Z,1.15
2019-05-25T13:44:12.154Z,0.98
2019-05-25T13:46:41.648Z,0.88
2019-05-25T13:49:11.145Z,0.90
2019-05-25T13:51:40.822Z,0.80
2019-05-25T13:54:10.291Z,1.00
2019-05-25T13:56:42.478Z,0.90
2019-05-25T13:59:12.021Z,1.00
2019-05-25T14:01:41.519Z,1.10
2019-05-25T14:04:11.010Z,0.90
2019-05-25T14:06:46.569Z,1.20
2019-05-25T14:09:16.161Z,0.90
2019-05-25T14:11:51.344Z,0.80
2019-05-25T14:14:24.191Z,0.90
2019-05-25T14:16:52.113Z,0.90
2019-05-25T14:19:21.570Z,0.90
2019-05-25T14:21:51.425Z,1.02
2019-05-25T14:24:21.192Z,0.90
2019-05-25T14:27:10.098Z,1.15
2019-05-25T14:29:41.099Z,0.98
2019-05-25T14:32:10.565Z,0.93
2019-05-25T14:34:40.602Z,0.90
2019-05-25T14:37:10.071Z,1.10
2019-05-25T14:39:39.577Z,1.00
2019-05-25T14:42:09.324Z,0.90
2019-05-25T14:44:38.811Z,0.88
2019-05-25T14:47:08.283Z,0.98
2019-05-25T14:49:38.045Z,0.90
2019-05-25T14:52:07.614Z,0.82
2019-05-25T14:54:37.114Z,1.00
2019-05-25T14:57:06.705Z,1.20
2019-05-25T14:59:36.199Z,1.00
2019-05-25T15:02:05.860Z,1.10
2019-05-25T15:04:35.371Z,0.93
2019-05-25T15:07:05.373Z,1.00
2019-05-25T15:09:54.328Z,1.00
2019-05-25T15:12:23.793Z,1.10
2019-05-25T15:15:13.951Z,1.00
2019-05-25T15:18:02.772Z,1.00
2019-05-25T15:20:51.613Z,1.05
2019-05-25T15:23:21.157Z,0.93
2019-05-25T15:25:50.629Z,1.00
2019-05-25T15:28:20.117Z,0.90
2019-05-25T15:30:49.579Z,1.10
2019-05-25T15:33:19.490Z,0.90
2019-05-25T15:35:49.037Z,0.98
2019-05-25T15:38:18.532Z,1.20
2019-05-25T15:40:48.019Z,1.20
2019-05-25T15:43:17.608Z,1.40
2019-05-25T15:45:47.088Z,1.10
2019-05-25T15:48:16.651Z,1.32
2019-05-25T15:50:46.200Z,1.22
2019-05-25T15:53:15.726Z,1.00
2019-05-25T15:55:45.215Z,1.00
2019-05-25T15:58:14.726Z,1.07
2019-05-25T16:00:48.596Z,1.02
2019-05-25T16:03:22.081Z,1.30
2019-05-25T16:05:54.350Z,1.20
2019-05-25T16:08:24.134Z,1.07
2019-05-25T16:10:53.712Z,1.10
2019-05-25T16:13:23.042Z,1.20
2019-05-25T16:15:52.541Z,1.32
2019-05-25T16:18:22.126Z,1.42
2019-05-25T16:20:51.583Z,1.25
2019-05-25T16:23:21.103Z,1.37
2019-05-25T16:25:50.666Z,1.10
2019-05-25T16:28:25.881Z,1.20
2019-05-25T16:30:55.352Z,1.35
2019-05-25T16:33:24.867Z,1.22
2019-05-25T16:36:13.674Z,1.30
2019-05-25T16:38:43.171Z,1.10
2019-05-25T16:41:12.646Z,1.10
2019-05-25T16:43:42.124Z,1.30
2019-05-25T16:46:11.822Z,1.30
2019-05-25T16:49:00.628Z,1.30
2019-05-25T16:51:30.164Z,1.10
2019-05-25T16:53:59.637Z,1.10
2019-05-25T16:56:29.120Z,1.25
2019-05-25T16:58:58.623Z,1.30
2019-05-25T17:01:28.091Z,1.40
2019-05-25T17:03:57.598Z,1.62
2019-05-25T17:06:27.107Z,1.17
2019-05-25T17:08:56.594Z,1.40
2019-05-25T17:11:26.106Z,1.07
2019-05-25T17:13:55.647Z,1.30
2019-05-25T17:16:25.135Z,1.40
2019-05-25T17:18:54.631Z,1.40
2019-05-25T17:21:24.268Z,1.42
2019-05-25T17:23:53.733Z,1.37
2019-05-25T17:26:23.245Z,1.10
2019-05-25T17:28:52.760Z,1.42
2019-05-25T17:31:22.518Z,1.20
2019-05-25T17:33:53.114Z,1.30
2019-05-25T17:36:23.212Z,1.20
2019-05-25T17:38:52.741Z,1.27
2019-05-25T17:41:22.247Z,1.32
2019-05-25T17:43:51.919Z,1.60
2019-05-25T17:46:21.419Z,1.50
2019-05-25T17:48:50.898Z,1.50
2019-05-25T17:51:39.686Z,1.50
2019-05-25T17:54:09.225Z,1.70
2019-05-25T17:56:38.698Z,1.50
2019-05-25T17:59:08.276Z,1.52
2019-05-25T18:01:37.776Z,1.82
2019-05-25T18:04:08.026Z,1.95
2019-05-25T18:06:37.756Z,1.85
2019-05-25T18:09:08.747Z,1.87
2019-05-25T18:11:38.378Z,1.90
2019-05-25T18:14:27.199Z,2.30
2019-05-25T18:16:56.694Z,2.50
2019-05-25T18:19:26.332Z,2.55
2019-05-25T18:21:58.948Z,2.47
2019-05-25T18:24:46.351Z,2.80
2019-05-25T18:27:15.857Z,3.00
2019-05-25T18:29:45.332Z,3.20
2019-05-25T18:32:14.872Z,4.35
2019-05-25T18:34:44.357Z,3.40
2019-05-25T18:37:13.996Z,3.22
2019-05-25T18:40:03.362Z,3.45
2019-05-25T18:42:41.803Z,3.62
2019-05-25T18:45:12.012Z,4.15
2019-05-25T18:47:50.411Z,4.17
2019-05-25T18:50:20.831Z,4.47
2019-05-25T18:52:50.699Z,4.50
2019-05-25T18:55:21.086Z,4.58
2019-05-25T18:57:53.587Z,4.20
2019-05-25T19:00:25.248Z,4.05
2019-05-25T19:02:54.688Z,4.22
2019-05-25T19:05:25.777Z,4.33
2019-05-25T19:07:55.334Z,5.22
2019-05-25T19:10:25.143Z,5.47
2019-05-25T19:12:54.853Z,4.87
2019-05-25T19:15:24.565Z,4.80
2019-05-25T19:17:54.066Z,5.00
2019-05-25T19:20:23.870Z,5.25
2019-05-25T19:22:53.367Z,5.47
2019-05-25T19:25:23.299Z,5.42
2019-05-25T19:27:52.873Z,5.17
2019-05-25T19:30:24.431Z,5.20
2019-05-25T19:33:13.259Z,5.20
2019-05-25T19:35:42.724Z,5.10
2019-05-25T19:38:12.215Z,5.25
2019-05-25T19:40:41.881Z,4.90
2019-05-25T19:43:11.344Z,5.05
2019-05-25T19:45:41.199Z,5.22
2019-05-25T19:48:11.003Z,5.25
2019-05-25T19:50:59.785Z,5.58
2019-05-25T19:53:29.283Z,5.37
2019-05-25T19:55:58.750Z,5.33
2019-05-25T19:58:28.226Z,5.10
2019-05-25T20:00:57.742Z,5.53
2019-05-25T20:03:27.232Z,5.40
2019-05-25T20:05:56.718Z,5.87
2019-05-25T20:08:26.249Z,5.58
2019-05-25T20:10:56.007Z,5.70
2019-05-25T20:13:25.495Z,5.92
2019-05-25T20:15:55.071Z,5.80
2019-05-25T20:18:24.563Z,5.78
2019-05-25T20:20:54.060Z,5.70
2019-05-25T20:23:23.574Z,5.78
2019-05-25T20:25:53.031Z,5.80
2019-05-25T20:28:22.540Z,5.53
2019-05-25T20:30:52.028Z,5.90
2019-05-25T20:33:27.795Z,6.22
2019-05-25T20:35:52.717Z,6.20
2019-05-25T20:38:22.231Z,6.47
2019-05-25T20:40:52.098Z,5.72
2019-05-25T20:43:21.569Z,6.50
2019-05-25T20:45:51.045Z,5.70
2019-05-25T20:48:20.538Z,5.90
2019-05-25T20:50:49.993Z,6.12
2019-05-25T20:53:38.852Z,6.00
2019-05-25T20:56:27.626Z,6.30
2019-05-25T20:58:57.114Z,5.70
2019-05-25T21:01:26.754Z,6.40
2019-05-25T21:03:56.227Z,5.85
2019-05-25T21:06:25.755Z,6.40
2019-05-25T21:08:55.225Z,6.00
2019-05-25T21:11:24.694Z,6.00
2019-05-25T21:13:54.208Z,6.12
2019-05-25T21:16:24.590Z,6.10
2019-05-25T21:18:54.079Z,6.40
2019-05-25T21:21:23.825Z,6.55
2019-05-25T21:23:53.293Z,6.65
2019-05-25T21:26:22.775Z,6.40
2019-05-25T21:28:52.254Z,6.55
2019-05-25T21:31:23.886Z,6.58
2019-05-25T21:33:53.051Z,6.67
2019-05-25T21:36:22.555Z,6.87
2019-05-25T21:38:52.021Z,6.45
2019-05-25T21:41:21.483Z,6.60
2019-05-25T21:43:51.213Z,6.35
2019-05-25T21:46:20.968Z,6.47
2019-05-25T21:48:50.425Z,6.70
2019-05-25T21:51:19.945Z,6.62
2019-05-25T21:53:49.437Z,7.45
2019-05-25T21:56:18.905Z,6.78
2019-05-25T21:58:48.397Z,6.95
2019-05-25T22:01:18.245Z,7.08
2019-05-25T22:03:47.716Z,7.75
2019-05-25T22:06:24.284Z,6.80
2019-05-25T22:08:48.459Z,6.87
2019-05-25T22:11:18.092Z,7.55
2019-05-25T22:13:47.592Z,7.35
2019-05-25T22:16:17.058Z,7.92
2019-05-25T22:18:46.705Z,7.20
2019-05-25T22:21:16.231Z,7.58
2019-05-25T22:23:45.685Z,7.95
2019-05-25T22:26:15.190Z,7.80
2019-05-25T22:28:45.477Z,8.20
2019-05-25T22:31:15.056Z,8.10
2019-05-25T22:33:44.542Z,7.92
2019-05-25T22:36:14.109Z,8.50
2019-05-25T22:38:43.615Z,8.00
2019-05-25T22:41:13.070Z,8.63
2019-05-25T22:43:42.575Z,9.10
2019-05-25T22:46:12.157Z,7.75
2019-05-25T22:48:41.789Z,8.33
2019-05-25T22:51:11.293Z,8.60
2019-05-25T22:53:40.832Z,9.20
2019-05-25T22:56:10.308Z,9.25
2019-05-25T22:58:39.874Z,8.90
2019-05-25T23:01:09.541Z,9.43
2019-05-25T23:03:39.045Z,8.70
2019-05-25T23:06:08.552Z,9.23
2019-05-25T23:08:38.023Z,8.73
2019-05-25T23:11:07.567Z,9.10
2019-05-25T23:13:37.077Z,8.95
2019-05-25T23:16:06.584Z,9.00
2019-05-25T23:18:36.071Z,9.30
2019-05-25T23:21:05.645Z,8.68
2019-05-25T23:23:35.147Z,9.78
2019-05-25T23:26:04.569Z,8.80
2019-05-25T23:28:34.064Z,9.78
2019-05-25T23:31:03.543Z,8.93
2019-05-25T23:33:33.011Z,8.75
2019-05-25T23:36:02.730Z,9.28
2019-05-25T23:38:32.230Z,9.15
2019-05-25T23:41:01.730Z,9.30
2019-05-25T23:43:31.252Z,9.38
2019-05-25T23:46:03.306Z,8.93
2019-05-25T23:48:32.865Z,9.38
2019-05-25T23:51:02.354Z,8.78
2019-05-25T23:53:31.816Z,9.20
2019-05-25T23:56:04.039Z,8.93
2019-05-25T23:58:33.587Z,9.58
